Home

PKWA Terminal Aerodrome Forecast (TAF)small logo


TAF provided by NWS Guam
2015/07/05 18:27
TAF PKWA 051720Z 0518/0618 18008KT P6SM VCSH SCT018 SCT035 SCT120 
     FM060100 12008KT P6SM VCSH SCT020 SCT040 SCT120

      



Site Map | Contact Us | Copyright © 2007 Atmospheric Technology Services Company. All rights reserved.